Airfield :







YOU CAN JOIN US ON...

 
LOGIN :

Register | Disclaimer

   EN    FR    IT 

 









Legend :    VFR   Marginal VFR   IFR   Intensive IFR   Very Intensive IFR
Visi :
Ceiling :
>= 8 km
>= 3000ft
5 to 8 km
1000 to 3000 ft
1500m to 5 km
500 to 1000 ft
800 to 1500m
200 to 500 ft
< 800m
< 200 ft
Symbols :   Thunderstorms  Fog  Heavy snow  Heavy precipitations  Wind > 20 kt






- Airport Elevation : 121 ft
- IATA code : YBX


CYBX - Lourdes De Blanc Sablon

CURRENT METAR :
  • 170400Z 30020G30KT 15SM FEW030 M03/M08 A2949 RMK SC1 SC TR SLP989

EXPIRED METARs :
  • 170300Z 29024G33KT 15SM FEW030 M03/M08 A2944 RMK SC1 SC TR SLP973
  • 170200Z 29027G38KT 15SM FEW030 M03/M08 A2939 RMK SC1 SC TR SLP955

TAF TAF CYBX
Valid from the 17 at 02:00 until the 17 at 14:00 UTC


170138Z 1702/1714 29020G35KT P6SM SCT030
BECMG 1703/1705 29030G45KT
BECMG 1707/1709 29020G35KT RMK NXT FCST BY 170800Z



MET'MAP, your aeronautical weather chart ! - Copyright ORBIFLY December 2007 - Disclaimer

ORBIFLY MET'MAP TEAM :

Programming & Development : Alexandra Zaïnal
Concept & Development : Baudouin d'Aumeries
Co-Development & Prog : Marc-Olivier Méhu
Technical & hardware support : Manuel Goepfert

Contact : metmap@orbifly.com




SOURCES & CREDITS :

   NOAA